AirNav   Air Wisconsin pilot careers
 
 323 users online  

NJ77 Warren County Public Safety Department Heliport
Franklin, New Jersey, USA

GOING TO FRANKLIN?


FAA INFORMATION EFFECTIVE 24 MAY 2018

Location

FAA Identifier: NJ77
Lat/Long: 40-44-27.5000N / 075-01-17.4000W
40-44.458333N / 075-01.290000W
40.7409722 / -75.0215000
(estimated)
Elevation: 411 ft. / 125 m (estimated)
From city: 2 miles W of FRANKLIN, NJ
Time zone: UTC -4 (UTC -5 during Standard Time)
Zip code: 07882

Heliport Operations

Heliport use: Private use. Permission required prior to landing
Activation date: 10/2008
Control tower: no
ARTCC: NEW YORK CENTER
FSS: MILLVILLE FLIGHT SERVICE STATION
Attendance: CONTINUOUS
Wind indicator: yes
Segmented circle: no

Heliport Communications

WX ASOS at SMQ (17 nm SE): 120.6 (908-722-2139)
WX ASOS at ABE (20 nm W): PHONE 610-266-3579

Nearby radio navigation aids

VOR radial/distance  VOR name  Freq  Var
BWZr260/9.7BROADWAY VOR/DME114.2011W
SBJr317/15.9SOLBERG VOR/DME112.9010W
STWr215/16.8STILLWATER VOR/DME109.6011W
FJCr098/19.7ALLENTOWN VORTAC117.5010W
SAXr239/29.4SPARTA VORTAC115.7011W
ARDr360/29.7YARDLEY VOR/DME108.2010W
ETXr081/31.6EAST TEXAS VOR/DME110.2009W
PNEr009/(39.5)NORTH PHILADELPHIA VOR112.0010W
PTWr047/39.7POTTSTOWN VORTAC116.5009W

 
NDB name  Hdg/Dist  Freq  Var  ID
CHATHAM283/26.925413WCAT -.-. .- -
AMBLER030/38.827512WING .. -. --.

Heliport Services

Runway Information

Helipad H1

Dimensions: 100 x 100 ft. / 30 x 30 m
Surface: turf
Traffic pattern: leftleft

Heliport Ownership and Management from official FAA records

Ownership: Privately-owned
Owner: WARREN COUNTY
1024 ROUTE 57
WASHINGTON, NJ 07882
Phone 908-835-2051
Manager: FRANK WHEATLEY
1024 ROUTE 57
WASHINGTON, NJ 07882
Phone 908-835-2051

Additional Remarks

A52-H1 H1 HAS 30 FT TREES 50 FT S AND 185 FT TWR 400 SSE OF PAD.

Instrument Procedures

There are no published instrument procedures at NJ77.

Some nearby airports with instrument procedures:

N85 - Alexandria Airport (9 nm S)
N43 - Braden Airpark (10 nm W)
N40 - Sky Manor Airport (11 nm S)
1N7 - Blairstown Airport (14 nm N)
N51 - Solberg-Hunterdon Airport (16 nm SE)
KSMQ - Somerset Airport (17 nm SE)
N53 - Stroudsburg-Pocono Airport (19 nm N)
KABE - Lehigh Valley International Airport (20 nm W)
 
Loc | Ops | Rwys | IFR | FBO | Links
Com | Nav | Svcs | Stats | Notes

AirNav Hotels Sweepstakes
 
Aerial photo
No photo
 
Sectional chart

 
Airport distance calculator
Flying to Warren County Public Safety Department Heliport? Find the distance to fly.

From to NJ77

Sunrise and sunset
Times for 28-May-2018
 Local
(UTC-4)
 Zulu
(UTC)
Morning civil twilight05:0209:02
Sunrise05:3409:34
Sunset20:2100:21
Evening civil twilight20:5300:53

Current date and time
Zulu (UTC)  28-May-2018 08:09:42
Local (UTC-4)  28-May-2018 04:09:42
 
METAR
KSMQ 
18nm SE 
ASOS 120.60 908-722-2139
280753Z AUTO 03003KT 10SM FEW014 OVC023 13/12 A3005 RMK AO2 SLP178 T01330122
KABE 
20nm W 
280751Z 12003KT 3SM BR OVC006 14/12 A3007 RMK AO2 SLP181 T01440122
K12N 
21nm NE 
280754Z AUTO 05003KT 12/12 A3008 RMK AO1 SLP186 T01220117
KXLL 
24nm SW 
280755Z AUTO 00000KT 10SM SCT007 OVC014 13/13 A3008 RMK AO2
KCKZ 
24nm SW 
280755Z AUTO 06003KT 2 1/2SM BR OVC004 12/12 A3008 RMK AO2 P0001
KUKT 
25nm SW 
280755Z AUTO 00000KT 1 1/2SM BR OVC002 13/13 A3007 RMK A01
KDYL 
25nm S 
280754Z AUTO 03004KT 8SM BKN006 BKN010 OVC016 13/13 A3006 RMK AO2 CIG 004V008 SLP179 T01280128
KMMU 
28nm E 
280755Z AUTO 04003KT 10SM OVC013 13/11 A3008 RMK AO2
KMPO 
29nm NW 
280753Z AUTO 10003KT 1/4SM FG VV001 10/10 A3007 RMK AO2 SLP185 T01000100
KTTN 
29nm S 
ASOS 133.70 609-538-8690
280753Z AUTO 02005KT 10SM OVC007 14/12 A3006 RMK AO2 SLP173 T01390117
TAF
KABE 
20nm W 
280531Z 2806/2906 08005KT P6SM OVC008 FM280800 VRB03KT 2SM BR OVC005 FM281300 VRB03KT P6SM OVC013 FM281400 VRB03KT P6SM OVC020 FM281700 21005KT P6SM BKN035 FM290500 00000KT 5SM BR BKN015
NOTAMs
Click for the latest NOTAMs
NOTAMs are issued by the DoD/FAA and will open in a separate window not controlled by AirNav.

 

 
 

Would you like to see your business listed on this page?

 If your business provides an interesting product or service to pilots, flight crews, aircraft, or users of the Warren County Public Safety Department Heliport, you should consider listing it here.  To start the listing process, click on the button below
 
Add a business
 

Other Pages about Warren County Public Safety Department Heliport

Update a link
 
Copyright © AirNav, LLC. All rights reserved. Privacy Policy  Contact